sensor_id;sensor_type;location;lat;lon;timestamp;P1;durP1;ratioP1;P2;durP2;ratioP2
68987;SDS011;56038;46.080;11.116;2023-12-22T00:00:27;10.35;;;6.78;;
68987;SDS011;56038;46.080;11.116;2023-12-22T00:05:28;13.95;;;9.30;;
68987;SDS011;56038;46.080;11.116;2023-12-22T00:10:31;12.68;;;8.55;;
68987;SDS011;56038;46.080;11.116;2023-12-22T00:15:33;17.15;;;10.52;;
68987;SDS011;56038;46.080;11.116;2023-12-22T00:20:35;12.73;;;8.93;;
68987;SDS011;56038;46.080;11.116;2023-12-22T00:25:38;11.95;;;8.35;;
68987;SDS011;56038;46.080;11.116;2023-12-22T00:30:39;12.13;;;7.50;;
68987;SDS011;56038;46.080;11.116;2023-12-22T00:35:41;14.10;;;8.30;;
68987;SDS011;56038;46.080;11.116;2023-12-22T00:40:44;11.07;;;7.47;;
68987;SDS011;56038;46.080;11.116;2023-12-22T00:45:45;11.65;;;8.70;;
68987;SDS011;56038;46.080;11.116;2023-12-22T00:50:47;10.90;;;7.30;;
68987;SDS011;56038;46.080;11.116;2023-12-22T00:55:50;10.23;;;7.63;;
68987;SDS011;56038;46.080;11.116;2023-12-22T01:01:07;10.57;;;7.72;;
68987;SDS011;56038;46.080;11.116;2023-12-22T01:17:12;10.35;;;6.88;;
68987;SDS011;56038;46.080;11.116;2023-12-22T01:27:38;9.15;;;7.18;;
68987;SDS011;56038;46.080;11.116;2023-12-22T01:32:41;13.20;;;8.23;;
68987;SDS011;56038;46.080;11.116;2023-12-22T01:37:43;10.18;;;7.00;;
68987;SDS011;56038;46.080;11.116;2023-12-22T01:48:45;10.70;;;6.97;;
68987;SDS011;56038;46.080;11.116;2023-12-22T01:53:48;9.98;;;6.93;;
68987;SDS011;56038;46.080;11.116;2023-12-22T01:58:57;11.18;;;6.35;;
68987;SDS011;56038;46.080;11.116;2023-12-22T02:04:03;9.63;;;6.88;;
68987;SDS011;56038;46.080;11.116;2023-12-22T02:09:06;6.72;;;5.97;;
68987;SDS011;56038;46.080;11.116;2023-12-22T02:14:07;8.68;;;6.63;;
68987;SDS011;56038;46.080;11.116;2023-12-22T02:19:13;10.35;;;6.32;;
68987;SDS011;56038;46.080;11.116;2023-12-22T02:24:38;8.27;;;4.93;;
68987;SDS011;56038;46.080;11.116;2023-12-22T02:29:42;9.70;;;6.20;;
68987;SDS011;56038;46.080;11.116;2023-12-22T02:34:47;8.50;;;5.32;;
68987;SDS011;56038;46.080;11.116;2023-12-22T02:39:53;7.10;;;5.60;;
68987;SDS011;56038;46.080;11.116;2023-12-22T02:44:58;8.75;;;5.50;;
68987;SDS011;56038;46.080;11.116;2023-12-22T02:50:00;6.45;;;5.47;;
68987;SDS011;56038;46.080;11.116;2023-12-22T02:55:04;8.45;;;5.80;;
68987;SDS011;56038;46.080;11.116;2023-12-22T03:00:06;7.10;;;5.85;;
68987;SDS011;56038;46.080;11.116;2023-12-22T03:05:09;9.95;;;6.80;;
68987;SDS011;56038;46.080;11.116;2023-12-22T03:10:12;9.27;;;6.35;;
68987;SDS011;56038;46.080;11.116;2023-12-22T03:15:14;13.05;;;7.15;;
68987;SDS011;56038;46.080;11.116;2023-12-22T03:20:15;8.68;;;6.07;;
68987;SDS011;56038;46.080;11.116;2023-12-22T03:25:18;7.82;;;5.53;;
68987;SDS011;56038;46.080;11.116;2023-12-22T03:30:20;7.82;;;5.72;;
68987;SDS011;56038;46.080;11.116;2023-12-22T03:35:22;8.85;;;6.43;;
68987;SDS011;56038;46.080;11.116;2023-12-22T03:40:25;10.95;;;7.63;;
68987;SDS011;56038;46.080;11.116;2023-12-22T03:45:27;8.57;;;5.70;;
68987;SDS011;56038;46.080;11.116;2023-12-22T03:50:29;10.38;;;6.60;;
68987;SDS011;56038;46.080;11.116;2023-12-22T03:55:32;6.30;;;5.00;;
68987;SDS011;56038;46.080;11.116;2023-12-22T04:00:34;6.65;;;4.20;;
68987;SDS011;56038;46.080;11.116;2023-12-22T04:05:35;6.07;;;4.55;;
68987;SDS011;56038;46.080;11.116;2023-12-22T04:10:38;4.90;;;4.25;;
68987;SDS011;56038;46.080;11.116;2023-12-22T04:15:40;7.65;;;5.72;;
68987;SDS011;56038;46.080;11.116;2023-12-22T04:20:42;6.07;;;4.75;;
68987;SDS011;56038;46.080;11.116;2023-12-22T04:25:45;7.53;;;5.30;;
68987;SDS011;56038;46.080;11.116;2023-12-22T04:30:47;7.00;;;5.03;;
68987;SDS011;56038;46.080;11.116;2023-12-22T04:35:49;8.02;;;5.40;;
68987;SDS011;56038;46.080;11.116;2023-12-22T04:40:52;5.95;;;4.88;;
68987;SDS011;56038;46.080;11.116;2023-12-22T04:45:54;5.75;;;4.78;;
68987;SDS011;56038;46.080;11.116;2023-12-22T04:50:55;7.60;;;5.18;;
68987;SDS011;56038;46.080;11.116;2023-12-22T04:55:59;6.50;;;4.88;;
68987;SDS011;56038;46.080;11.116;2023-12-22T05:01:00;5.50;;;4.72;;
68987;SDS011;56038;46.080;11.116;2023-12-22T05:06:02;5.90;;;5.07;;
68987;SDS011;56038;46.080;11.116;2023-12-22T05:11:06;5.53;;;4.30;;
68987;SDS011;56038;46.080;11.116;2023-12-22T05:16:08;9.55;;;7.10;;
68987;SDS011;56038;46.080;11.116;2023-12-22T05:21:11;8.30;;;5.43;;
68987;SDS011;56038;46.080;11.116;2023-12-22T05:26:17;5.32;;;4.03;;
68987;SDS011;56038;46.080;11.116;2023-12-22T05:31:19;11.53;;;5.07;;
68987;SDS011;56038;46.080;11.116;2023-12-22T05:36:21;6.65;;;4.88;;
68987;SDS011;56038;46.080;11.116;2023-12-22T05:41:24;8.38;;;4.78;;
68987;SDS011;56038;46.080;11.116;2023-12-22T05:46:26;8.15;;;4.70;;
68987;SDS011;56038;46.080;11.116;2023-12-22T05:51:28;5.80;;;4.80;;
68987;SDS011;56038;46.080;11.116;2023-12-22T05:56:31;5.28;;;4.32;;
68987;SDS011;56038;46.080;11.116;2023-12-22T06:01:33;6.53;;;4.43;;
68987;SDS011;56038;46.080;11.116;2023-12-22T06:06:36;7.18;;;4.97;;
68987;SDS011;56038;46.080;11.116;2023-12-22T06:11:41;6.07;;;4.60;;
68987;SDS011;56038;46.080;11.116;2023-12-22T06:16:42;8.23;;;4.75;;
68987;SDS011;56038;46.080;11.116;2023-12-22T06:21:44;7.78;;;5.57;;
68987;SDS011;56038;46.080;11.116;2023-12-22T06:26:47;8.68;;;5.50;;
68987;SDS011;56038;46.080;11.116;2023-12-22T06:31:49;8.45;;;5.90;;
68987;SDS011;56038;46.080;11.116;2023-12-22T06:36:50;7.63;;;4.78;;
68987;SDS011;56038;46.080;11.116;2023-12-22T06:41:54;8.23;;;4.35;;
68987;SDS011;56038;46.080;11.116;2023-12-22T06:46:55;4.47;;;3.75;;
68987;SDS011;56038;46.080;11.116;2023-12-22T06:51:57;5.45;;;4.35;;
68987;SDS011;56038;46.080;11.116;2023-12-22T06:57:00;8.30;;;5.13;;
68987;SDS011;56038;46.080;11.116;2023-12-22T07:02:02;6.38;;;5.22;;
68987;SDS011;56038;46.080;11.116;2023-12-22T07:07:04;24.30;;;13.73;;
68987;SDS011;56038;46.080;11.116;2023-12-22T07:12:07;17.02;;;10.63;;
68987;SDS011;56038;46.080;11.116;2023-12-22T07:17:10;14.52;;;10.20;;
68987;SDS011;56038;46.080;11.116;2023-12-22T07:22:12;13.02;;;7.68;;
68987;SDS011;56038;46.080;11.116;2023-12-22T07:27:16;6.72;;;5.43;;
68987;SDS011;56038;46.080;11.116;2023-12-22T07:32:18;5.75;;;4.43;;
68987;SDS011;56038;46.080;11.116;2023-12-22T07:37:20;5.05;;;4.00;;
68987;SDS011;56038;46.080;11.116;2023-12-22T07:42:23;5.50;;;4.13;;
68987;SDS011;56038;46.080;11.116;2023-12-22T07:47:24;62.75;;;10.05;;
68987;SDS011;56038;46.080;11.116;2023-12-22T07:52:26;10.57;;;6.00;;
68987;SDS011;56038;46.080;11.116;2023-12-22T07:57:30;7.80;;;4.70;;
68987;SDS011;56038;46.080;11.116;2023-12-22T08:02:31;8.27;;;4.70;;
68987;SDS011;56038;46.080;11.116;2023-12-22T08:07:33;6.97;;;4.95;;
68987;SDS011;56038;46.080;11.116;2023-12-22T08:12:37;6.15;;;5.43;;
68987;SDS011;56038;46.080;11.116;2023-12-22T08:17:45;7.25;;;5.57;;
68987;SDS011;56038;46.080;11.116;2023-12-22T08:22:47;6.50;;;4.72;;
68987;SDS011;56038;46.080;11.116;2023-12-22T08:27:51;6.32;;;4.60;;
68987;SDS011;56038;46.080;11.116;2023-12-22T08:32:53;4.95;;;4.32;;
68987;SDS011;56038;46.080;11.116;2023-12-22T08:37:54;7.38;;;4.55;;
68987;SDS011;56038;46.080;11.116;2023-12-22T08:42:59;7.53;;;5.20;;
68987;SDS011;56038;46.080;11.116;2023-12-22T08:48:00;8.93;;;5.20;;
68987;SDS011;56038;46.080;11.116;2023-12-22T08:53:02;10.27;;;5.57;;
68987;SDS011;56038;46.080;11.116;2023-12-22T08:58:06;19.88;;;4.20;;
68987;SDS011;56038;46.080;11.116;2023-12-22T09:03:07;5.97;;;3.17;;
68987;SDS011;56038;46.080;11.116;2023-12-22T09:08:10;4.60;;;3.33;;
68987;SDS011;56038;46.080;11.116;2023-12-22T09:13:13;4.50;;;3.60;;
68987;SDS011;56038;46.080;11.116;2023-12-22T09:18:15;3.53;;;3.20;;
68987;SDS011;56038;46.080;11.116;2023-12-22T09:23:16;6.18;;;3.35;;
68987;SDS011;56038;46.080;11.116;2023-12-22T09:28:20;4.80;;;2.88;;
68987;SDS011;56038;46.080;11.116;2023-12-22T09:33:21;4.75;;;3.20;;
68987;SDS011;56038;46.080;11.116;2023-12-22T09:38:25;5.88;;;2.20;;
68987;SDS011;56038;46.080;11.116;2023-12-22T09:43:29;3.80;;;2.15;;
68987;SDS011;56038;46.080;11.116;2023-12-22T09:48:34;2.17;;;1.95;;
68987;SDS011;56038;46.080;11.116;2023-12-22T09:53:40;3.03;;;2.23;;
68987;SDS011;56038;46.080;11.116;2023-12-22T09:58:44;2.55;;;1.80;;
68987;SDS011;56038;46.080;11.116;2023-12-22T10:03:48;8.38;;;1.80;;
68987;SDS011;56038;46.080;11.116;2023-12-22T10:08:53;11.38;;;1.80;;
68987;SDS011;56038;46.080;11.116;2023-12-22T10:13:58;3.85;;;1.30;;
68987;SDS011;56038;46.080;11.116;2023-12-22T10:19:00;1.50;;;1.40;;
68987;SDS011;56038;46.080;11.116;2023-12-22T10:24:03;5.35;;;1.30;;
68987;SDS011;56038;46.080;11.116;2023-12-22T10:29:06;4.50;;;1.35;;
68987;SDS011;56038;46.080;11.116;2023-12-22T10:34:09;4.07;;;1.58;;
68987;SDS011;56038;46.080;11.116;2023-12-22T10:39:11;2.33;;;1.35;;
68987;SDS011;56038;46.080;11.116;2023-12-22T10:44:14;1.15;;;1.05;;
68987;SDS011;56038;46.080;11.116;2023-12-22T10:49:17;2.38;;;0.90;;
68987;SDS011;56038;46.080;11.116;2023-12-22T10:54:19;3.13;;;1.20;;
68987;SDS011;56038;46.080;11.116;2023-12-22T10:59:22;0.90;;;0.73;;
68987;SDS011;56038;46.080;11.116;2023-12-22T11:04:25;1.23;;;1.08;;
68987;SDS011;56038;46.080;11.116;2023-12-22T11:09:31;0.82;;;0.80;;
68987;SDS011;56038;46.080;11.116;2023-12-22T11:14:37;0.60;;;0.60;;
68987;SDS011;56038;46.080;11.116;2023-12-22T11:19:41;3.17;;;0.90;;
68987;SDS011;56038;46.080;11.116;2023-12-22T11:24:44;0.50;;;0.50;;
68987;SDS011;56038;46.080;11.116;2023-12-22T11:29:49;0.93;;;0.80;;
68987;SDS011;56038;46.080;11.116;2023-12-22T11:34:51;2.47;;;0.80;;
68987;SDS011;56038;46.080;11.116;2023-12-22T11:39:54;2.40;;;1.10;;
68987;SDS011;56038;46.080;11.116;2023-12-22T11:44:58;1.83;;;0.80;;
68987;SDS011;56038;46.080;11.116;2023-12-22T11:50:00;1.48;;;0.55;;
68987;SDS011;56038;46.080;11.116;2023-12-22T11:55:02;4.15;;;2.17;;
68987;SDS011;56038;46.080;11.116;2023-12-22T12:00:08;0.85;;;0.75;;
68987;SDS011;56038;46.080;11.116;2023-12-22T12:05:21;0.95;;;0.50;;
68987;SDS011;56038;46.080;11.116;2023-12-22T12:10:36;2.03;;;0.70;;
68987;SDS011;56038;46.080;11.116;2023-12-22T12:15:56;2.17;;;0.50;;
68987;SDS011;56038;46.080;11.116;2023-12-22T12:21:01;3.85;;;0.73;;
68987;SDS011;56038;46.080;11.116;2023-12-22T12:26:03;0.55;;;0.50;;
68987;SDS011;56038;46.080;11.116;2023-12-22T12:31:06;2.88;;;0.75;;
68987;SDS011;56038;46.080;11.116;2023-12-22T12:36:09;0.63;;;0.60;;
68987;SDS011;56038;46.080;11.116;2023-12-22T12:41:12;3.80;;;0.70;;
68987;SDS011;56038;46.080;11.116;2023-12-22T12:46:18;0.50;;;0.40;;
68987;SDS011;56038;46.080;11.116;2023-12-22T12:51:20;0.45;;;0.43;;
68987;SDS011;56038;46.080;11.116;2023-12-22T12:56:22;0.75;;;0.70;;
68987;SDS011;56038;46.080;11.116;2023-12-22T13:01:25;0.30;;;0.30;;
68987;SDS011;56038;46.080;11.116;2023-12-22T13:06:27;1.10;;;0.40;;
68987;SDS011;56038;46.080;11.116;2023-12-22T13:11:29;6.32;;;2.20;;
68987;SDS011;56038;46.080;11.116;2023-12-22T13:16:34;2.05;;;0.98;;
68987;SDS011;56038;46.080;11.116;2023-12-22T13:21:36;0.95;;;0.50;;
68987;SDS011;56038;46.080;11.116;2023-12-22T13:26:38;0.75;;;0.50;;
68987;SDS011;56038;46.080;11.116;2023-12-22T13:31:42;1.02;;;0.73;;
68987;SDS011;56038;46.080;11.116;2023-12-22T13:36:45;1.38;;;0.60;;
68987;SDS011;56038;46.080;11.116;2023-12-22T13:41:47;1.15;;;0.45;;
68987;SDS011;56038;46.080;11.116;2023-12-22T13:46:50;12.70;;;1.60;;
68987;SDS011;56038;46.080;11.116;2023-12-22T13:51:52;6.78;;;2.22;;
68987;SDS011;56038;46.080;11.116;2023-12-22T13:56:54;0.70;;;0.55;;
68987;SDS011;56038;46.080;11.116;2023-12-22T14:01:58;0.73;;;0.52;;
68987;SDS011;56038;46.080;11.116;2023-12-22T14:07:00;0.40;;;0.40;;
68987;SDS011;56038;46.080;11.116;2023-12-22T14:12:01;0.40;;;0.40;;
68987;SDS011;56038;46.080;11.116;2023-12-22T14:17:05;1.60;;;0.47;;
68987;SDS011;56038;46.080;11.116;2023-12-22T14:22:06;2.55;;;0.65;;
68987;SDS011;56038;46.080;11.116;2023-12-22T14:27:08;0.57;;;0.50;;
68987;SDS011;56038;46.080;11.116;2023-12-22T14:32:11;0.52;;;0.40;;
68987;SDS011;56038;46.080;11.116;2023-12-22T14:37:15;0.80;;;0.43;;
68987;SDS011;56038;46.080;11.116;2023-12-22T14:42:17;0.80;;;0.70;;
68987;SDS011;56038;46.080;11.116;2023-12-22T14:47:20;0.70;;;0.50;;
68987;SDS011;56038;46.080;11.116;2023-12-22T14:52:22;1.65;;;0.60;;
68987;SDS011;56038;46.080;11.116;2023-12-22T14:57:24;0.43;;;0.43;;
68987;SDS011;56038;46.080;11.116;2023-12-22T15:02:27;3.35;;;0.70;;
68987;SDS011;56038;46.080;11.116;2023-12-22T15:07:30;1.02;;;0.60;;
68987;SDS011;56038;46.080;11.116;2023-12-22T15:12:32;0.47;;;0.47;;
68987;SDS011;56038;46.080;11.116;2023-12-22T15:17:37;0.40;;;0.40;;
68987;SDS011;56038;46.080;11.116;2023-12-22T15:22:39;0.57;;;0.43;;
68987;SDS011;56038;46.080;11.116;2023-12-22T15:27:44;0.60;;;0.52;;
68987;SDS011;56038;46.080;11.116;2023-12-22T15:32:47;0.32;;;0.32;;
68987;SDS011;56038;46.080;11.116;2023-12-22T15:37:49;0.90;;;0.70;;
68987;SDS011;56038;46.080;11.116;2023-12-22T15:42:51;0.57;;;0.50;;
68987;SDS011;56038;46.080;11.116;2023-12-22T15:47:54;0.63;;;0.50;;
68987;SDS011;56038;46.080;11.116;2023-12-22T15:52:57;1.10;;;0.70;;
68987;SDS011;56038;46.080;11.116;2023-12-22T15:57:59;2.88;;;1.10;;
68987;SDS011;56038;46.080;11.116;2023-12-22T16:03:02;0.80;;;0.80;;
68987;SDS011;56038;46.080;11.116;2023-12-22T16:08:05;0.68;;;0.57;;
68987;SDS011;56038;46.080;11.116;2023-12-22T16:13:09;1.13;;;0.80;;
68987;SDS011;56038;46.080;11.116;2023-12-22T16:18:14;1.43;;;0.83;;
68987;SDS011;56038;46.080;11.116;2023-12-22T16:23:15;1.05;;;0.95;;
68987;SDS011;56038;46.080;11.116;2023-12-22T16:33:25;1.85;;;1.55;;
68987;SDS011;56038;46.080;11.116;2023-12-22T16:38:27;2.67;;;2.47;;
68987;SDS011;56038;46.080;11.116;2023-12-22T16:43:29;2.95;;;2.50;;
68987;SDS011;56038;46.080;11.116;2023-12-22T16:48:32;3.00;;;2.70;;
68987;SDS011;56038;46.080;11.116;2023-12-22T16:53:33;5.95;;;2.30;;
68987;SDS011;56038;46.080;11.116;2023-12-22T16:58:35;4.35;;;3.03;;
68987;SDS011;56038;46.080;11.116;2023-12-22T17:03:39;3.20;;;2.80;;
68987;SDS011;56038;46.080;11.116;2023-12-22T17:08:40;5.13;;;3.88;;
68987;SDS011;56038;46.080;11.116;2023-12-22T17:13:42;2.60;;;2.33;;
68987;SDS011;56038;46.080;11.116;2023-12-22T17:18:45;2.20;;;2.10;;
68987;SDS011;56038;46.080;11.116;2023-12-22T17:23:48;2.20;;;1.60;;
68987;SDS011;56038;46.080;11.116;2023-12-22T17:28:50;3.45;;;2.88;;
68987;SDS011;56038;46.080;11.116;2023-12-22T17:33:53;2.35;;;2.15;;
68987;SDS011;56038;46.080;11.116;2023-12-22T17:38:57;2.60;;;2.33;;
68987;SDS011;56038;46.080;11.116;2023-12-22T17:43:59;3.05;;;2.08;;
68987;SDS011;56038;46.080;11.116;2023-12-22T17:49:02;2.47;;;2.28;;
68987;SDS011;56038;46.080;11.116;2023-12-22T17:54:04;3.13;;;2.80;;
68987;SDS011;56038;46.080;11.116;2023-12-22T17:59:06;4.55;;;3.70;;
68987;SDS011;56038;46.080;11.116;2023-12-22T18:04:09;3.33;;;2.50;;
68987;SDS011;56038;46.080;11.116;2023-12-22T18:09:11;2.13;;;2.00;;
68987;SDS011;56038;46.080;11.116;2023-12-22T18:14:13;3.10;;;2.80;;
68987;SDS011;56038;46.080;11.116;2023-12-22T18:19:16;4.50;;;3.13;;
68987;SDS011;56038;46.080;11.116;2023-12-22T18:24:19;2.35;;;2.15;;
68987;SDS011;56038;46.080;11.116;2023-12-22T18:29:20;4.90;;;2.25;;
68987;SDS011;56038;46.080;11.116;2023-12-22T18:34:24;4.45;;;2.65;;
68987;SDS011;56038;46.080;11.116;2023-12-22T18:39:25;2.92;;;2.63;;
68987;SDS011;56038;46.080;11.116;2023-12-22T18:44:27;3.17;;;2.88;;
68987;SDS011;56038;46.080;11.116;2023-12-22T18:49:30;2.75;;;2.35;;
68987;SDS011;56038;46.080;11.116;2023-12-22T18:54:32;5.60;;;3.72;;
68987;SDS011;56038;46.080;11.116;2023-12-22T18:59:35;6.55;;;4.88;;
68987;SDS011;56038;46.080;11.116;2023-12-22T19:04:38;6.93;;;4.93;;
68987;SDS011;56038;46.080;11.116;2023-12-22T19:09:42;5.63;;;4.70;;
68987;SDS011;56038;46.080;11.116;2023-12-22T19:14:44;5.57;;;4.72;;
68987;SDS011;56038;46.080;11.116;2023-12-22T19:19:47;4.85;;;4.18;;
68987;SDS011;56038;46.080;11.116;2023-12-22T19:24:49;6.43;;;4.45;;
68987;SDS011;56038;46.080;11.116;2023-12-22T19:29:52;6.88;;;4.63;;
68987;SDS011;56038;46.080;11.116;2023-12-22T19:34:56;7.40;;;5.88;;
68987;SDS011;56038;46.080;11.116;2023-12-22T19:39:58;6.93;;;5.10;;
68987;SDS011;56038;46.080;11.116;2023-12-22T19:45:04;4.88;;;4.35;;
68987;SDS011;56038;46.080;11.116;2023-12-22T19:50:08;8.68;;;5.57;;
68987;SDS011;56038;46.080;11.116;2023-12-22T19:55:10;8.73;;;6.00;;
68987;SDS011;56038;46.080;11.116;2023-12-22T20:00:12;10.45;;;5.80;;
68987;SDS011;56038;46.080;11.116;2023-12-22T20:05:16;11.52;;;7.82;;
68987;SDS011;56038;46.080;11.116;2023-12-22T20:10:18;9.13;;;5.72;;
68987;SDS011;56038;46.080;11.116;2023-12-22T20:15:20;9.75;;;6.15;;
68987;SDS011;56038;46.080;11.116;2023-12-22T20:20:27;9.43;;;6.18;;
68987;SDS011;56038;46.080;11.116;2023-12-22T20:25:32;8.25;;;5.78;;
68987;SDS011;56038;46.080;11.116;2023-12-22T20:30:34;7.05;;;5.05;;
68987;SDS011;56038;46.080;11.116;2023-12-22T20:35:38;7.35;;;4.70;;
68987;SDS011;56038;46.080;11.116;2023-12-22T20:40:40;6.47;;;4.55;;
68987;SDS011;56038;46.080;11.116;2023-12-22T20:45:42;9.95;;;6.40;;
68987;SDS011;56038;46.080;11.116;2023-12-22T20:50:46;7.03;;;5.47;;
68987;SDS011;56038;46.080;11.116;2023-12-22T20:55:48;6.55;;;4.40;;
68987;SDS011;56038;46.080;11.116;2023-12-22T21:00:50;6.05;;;4.38;;
68987;SDS011;56038;46.080;11.116;2023-12-22T21:05:53;10.65;;;5.95;;
68987;SDS011;56038;46.080;11.116;2023-12-22T21:10:58;7.72;;;5.90;;
68987;SDS011;56038;46.080;11.116;2023-12-22T21:16:03;8.45;;;5.03;;
68987;SDS011;56038;46.080;11.116;2023-12-22T21:21:08;6.47;;;4.60;;
68987;SDS011;56038;46.080;11.116;2023-12-22T21:26:17;7.10;;;5.57;;
68987;SDS011;56038;46.080;11.116;2023-12-22T21:31:20;6.57;;;4.43;;
68987;SDS011;56038;46.080;11.116;2023-12-22T21:36:24;5.00;;;4.32;;
68987;SDS011;56038;46.080;11.116;2023-12-22T21:41:26;4.40;;;3.72;;
68987;SDS011;56038;46.080;11.116;2023-12-22T21:46:29;6.68;;;4.28;;
68987;SDS011;56038;46.080;11.116;2023-12-22T21:51:32;5.18;;;4.43;;
68987;SDS011;56038;46.080;11.116;2023-12-22T21:56:34;7.93;;;5.38;;
68987;SDS011;56038;46.080;11.116;2023-12-22T22:01:42;8.70;;;6.35;;
68987;SDS011;56038;46.080;11.116;2023-12-22T22:06:47;8.43;;;6.40;;
68987;SDS011;56038;46.080;11.116;2023-12-22T22:11:48;7.97;;;5.85;;
68987;SDS011;56038;46.080;11.116;2023-12-22T22:16:50;11.88;;;7.88;;
68987;SDS011;56038;46.080;11.116;2023-12-22T22:21:53;7.53;;;6.40;;
68987;SDS011;56038;46.080;11.116;2023-12-22T22:26:55;9.48;;;6.60;;
68987;SDS011;56038;46.080;11.116;2023-12-22T22:31:56;7.57;;;5.95;;
68987;SDS011;56038;46.080;11.116;2023-12-22T22:37:00;8.82;;;7.13;;
68987;SDS011;56038;46.080;11.116;2023-12-22T22:42:03;8.98;;;6.15;;
68987;SDS011;56038;46.080;11.116;2023-12-22T22:47:05;8.88;;;6.10;;
68987;SDS011;56038;46.080;11.116;2023-12-22T22:52:08;8.25;;;6.35;;
68987;SDS011;56038;46.080;11.116;2023-12-22T22:57:10;6.28;;;5.53;;
68987;SDS011;56038;46.080;11.116;2023-12-22T23:02:12;6.65;;;5.50;;
68987;SDS011;56038;46.080;11.116;2023-12-22T23:07:16;10.00;;;6.88;;
68987;SDS011;56038;46.080;11.116;2023-12-22T23:12:18;9.35;;;6.85;;
68987;SDS011;56038;46.080;11.116;2023-12-22T23:17:19;8.70;;;6.03;;
68987;SDS011;56038;46.080;11.116;2023-12-22T23:22:23;8.80;;;6.43;;
68987;SDS011;56038;46.080;11.116;2023-12-22T23:27:24;8.57;;;6.13;;
68987;SDS011;56038;46.080;11.116;2023-12-22T23:32:26;8.95;;;6.32;;
68987;SDS011;56038;46.080;11.116;2023-12-22T23:37:30;7.10;;;5.40;;
68987;SDS011;56038;46.080;11.116;2023-12-22T23:42:31;6.45;;;5.22;;
68987;SDS011;56038;46.080;11.116;2023-12-22T23:47:33;7.57;;;5.85;;
68987;SDS011;56038;46.080;11.116;2023-12-22T23:52:36;7.15;;;5.28;;
68987;SDS011;56038;46.080;11.116;2023-12-22T23:57:38;8.52;;;5.53;;
